Time;durP1;ratioP1;P1;durP2;ratioP2;P2;SDS_P1;SDS_P2;PMS_P1;PMS_P2;Temp;Humidity;BMP_temperature;BMP_pressure;BME280_temperature;BME280_humidity;BME280_pressure;Samples;Min_cycle;Max_cycle;Signal;HPM_P1;HPM_P2
2020/12/05 00:02:08;;;;;;;29.73;16.67;;;5.20;99.90;;;;;;4994737;28;20045;-70
2020/12/05 00:04:34;;;;;;;27.48;16.15;;;5.10;99.90;;;;;;4993309;28;20084;-70
2020/12/05 00:06:59;;;;;;;25.35;16.15;;;5.20;99.90;;;;;;4994680;28;20085;-70
2020/12/05 00:09:25;;;;;;;25.88;16.33;;;5.20;99.90;;;;;;4994667;28;20036;-70
2020/12/05 00:11:50;;;;;;;27.08;16.05;;;5.10;99.90;;;;;;4976643;28;20030;-70
2020/12/05 00:14:16;;;;;;;26.38;15.00;;;5.10;99.90;;;;;;4994606;28;20030;-70
2020/12/05 00:16:42;;;;;;;27.48;16.17;;;5.00;99.90;;;;;;4994596;28;20023;-70
2020/12/05 00:19:07;;;;;;;26.67;16.10;;;5.00;99.90;;;;;;4993150;28;20469;-70
2020/12/05 00:21:33;;;;;;;26.35;15.90;;;5.00;99.90;;;;;;4994555;28;20053;-70
2020/12/05 00:23:59;;;;;;;25.50;15.88;;;5.00;99.90;;;;;;4993385;28;20479;-70
2020/12/05 00:26:25;;;;;;;29.55;16.38;;;4.90;99.90;;;;;;4992709;28;20035;-70
2020/12/05 00:28:50;;;;;;;28.42;16.75;;;4.90;99.90;;;;;;4976604;28;20026;-70
2020/12/05 00:31:19;;;;;;;27.38;16.40;;;4.90;99.90;;;;;;4976460;28;20031;-70
2020/12/05 00:33:45;;;;;;;30.85;17.20;;;4.80;99.90;;;;;;4993260;28;20471;-70
2020/12/05 00:36:15;;;;;;;30.20;16.38;;;4.90;99.90;;;;;;4994216;28;20057;-70
2020/12/05 00:38:41;;;;;;;25.10;15.68;;;4.80;99.90;;;;;;4992999;28;20077;-70
2020/12/05 00:41:07;;;;;;;27.65;16.15;;;4.80;99.90;;;;;;4992641;28;20034;-70
2020/12/05 00:43:34;;;;;;;27.02;16.10;;;4.80;99.90;;;;;;4994169;28;20551;-70
2020/12/05 00:46:03;;;;;;;27.63;16.15;;;4.80;99.90;;;;;;4994382;28;20023;-70
2020/12/05 00:48:29;;;;;;;28.30;17.13;;;4.80;99.90;;;;;;4994397;28;20081;-69
2020/12/05 00:50:54;;;;;;;29.42;18.08;;;4.80;99.90;;;;;;4992641;28;20427;-70
2020/12/05 00:53:20;;;;;;;30.23;17.92;;;4.70;99.90;;;;;;4995734;28;20030;-70
2020/12/05 00:55:46;;;;;;;36.55;18.15;;;4.70;99.90;;;;;;4997545;28;20053;-69
2020/12/05 00:58:12;;;;;;;29.02;17.02;;;4.80;99.90;;;;;;4996257;28;20495;-70
2020/12/05 01:00:39;;;;;;;28.58;17.58;;;4.70;99.90;;;;;;4997744;28;20026;-70
2020/12/05 01:03:04;;;;;;;30.13;17.75;;;4.70;99.90;;;;;;4996215;28;20042;-70
2020/12/05 01:05:32;;;;;;;34.08;18.92;;;4.70;99.90;;;;;;4996518;28;20089;-70
2020/12/05 01:07:57;;;;;;;28.13;17.67;;;4.70;99.90;;;;;;4980054;28;20026;-70
2020/12/05 01:10:23;;;;;;;35.65;18.73;;;4.80;99.90;;;;;;4996060;28;20053;-70
2020/12/05 01:12:48;;;;;;;31.02;18.77;;;4.80;99.90;;;;;;4997829;28;20029;-70
2020/12/05 01:15:14;;;;;;;30.42;17.85;;;4.80;99.90;;;;;;4996258;28;20038;-70
2020/12/05 01:17:40;;;;;;;29.65;17.85;;;4.80;99.90;;;;;;4997708;28;20368;-70
2020/12/05 01:20:06;;;;;;;31.02;17.77;;;4.80;99.90;;;;;;4997367;28;20408;-70
2020/12/05 01:22:32;;;;;;;30.00;17.92;;;4.80;99.90;;;;;;4997609;28;20014;-70
2020/12/05 01:24:58;;;;;;;28.75;17.75;;;4.80;99.90;;;;;;4996413;28;20033;-70
2020/12/05 01:27:24;;;;;;;34.22;19.58;;;4.80;99.90;;;;;;4996051;28;20027;-70
2020/12/05 01:29:50;;;;;;;30.83;18.17;;;4.80;99.90;;;;;;4997484;28;20022;-70
2020/12/05 01:32:15;;;;;;;33.25;19.58;;;4.80;99.90;;;;;;4995579;28;20057;-70
2020/12/05 01:34:41;;;;;;;34.28;20.30;;;4.90;99.90;;;;;;4997342;28;20019;-70
2020/12/05 01:37:07;;;;;;;31.90;18.83;;;4.80;99.90;;;;;;4997082;28;20492;-70
2020/12/05 01:39:33;;;;;;;32.65;19.42;;;4.90;99.90;;;;;;4997290;28;20037;-70
2020/12/05 01:41:59;;;;;;;35.13;18.88;;;4.80;99.90;;;;;;4997228;28;20472;-70
2020/12/05 01:44:24;;;;;;;36.50;19.88;;;4.70;99.90;;;;;;4996631;28;20088;-70
2020/12/05 01:46:52;;;;;;;34.15;20.27;;;4.80;99.90;;;;;;4997137;28;20035;-70
2020/12/05 01:49:20;;;;;;;35.10;20.75;;;4.70;99.90;;;;;;4995397;28;20029;-70
2020/12/05 01:51:46;;;;;;;36.30;20.20;;;4.70;99.90;;;;;;4995861;28;20022;-69
2020/12/05 01:54:12;;;;;;;38.78;21.25;;;4.70;99.90;;;;;;4995484;28;20361;-70
2020/12/05 01:56:39;;;;;;;36.92;20.77;;;4.70;99.90;;;;;;4996993;28;20084;-70
2020/12/05 01:59:05;;;;;;;39.60;22.00;;;4.70;99.90;;;;;;4996929;28;20452;-70
2020/12/05 02:01:33;;;;;;;38.42;21.27;;;4.70;99.90;;;;;;4996888;28;20023;-70
2020/12/05 02:04:01;;;;;;;42.60;23.17;;;4.70;99.90;;;;;;4996525;28;20466;-70
2020/12/05 02:07:06;;;;;;;40.33;22.85;;;4.70;99.90;;;;;;4996503;28;20026;-70
2020/12/05 02:09:36;;;;;;;41.88;24.02;;;4.70;99.90;;;;;;4995903;28;20023;-70
2020/12/05 02:12:15;;;;;;;45.03;23.88;;;4.60;99.90;;;;;;4996649;28;20118;-70
2020/12/05 02:14:42;;;;;;;43.50;23.15;;;4.60;99.90;;;;;;4996129;28;20480;-70
2020/12/05 02:17:12;;;;;;;39.25;23.60;;;4.60;99.90;;;;;;4996626;28;20042;-70
2020/12/05 02:19:50;;;;;;;40.17;22.60;;;4.60;99.90;;;;;;4996588;28;20073;-70
2020/12/05 02:22:25;;;;;;;38.50;22.73;;;4.70;99.90;;;;;;4996538;28;20053;-70
2020/12/05 02:24:51;;;;;;;42.33;23.02;;;4.70;99.90;;;;;;4995938;28;20472;-70
2020/12/05 02:27:17;;;;;;;37.35;21.80;;;4.70;99.90;;;;;;4995263;28;20464;-70
2020/12/05 02:29:43;;;;;;;41.28;24.05;;;4.70;99.90;;;;;;4995051;28;20038;-70
2020/12/05 02:32:09;;;;;;;41.50;25.73;;;4.70;99.90;;;;;;4996154;28;20027;-70
2020/12/05 02:34:35;;;;;;;41.83;23.10;;;4.80;99.90;;;;;;4996251;28;20041;-70
2020/12/05 02:37:09;;;;;;;42.22;23.13;;;4.80;99.90;;;;;;4996009;28;20026;-70
2020/12/05 02:39:35;;;;;;;40.92;22.75;;;4.80;99.90;;;;;;4978223;28;20026;-70
2020/12/05 02:42:01;;;;;;;41.70;23.42;;;4.90;99.90;;;;;;4994478;28;20113;-70
2020/12/05 02:44:26;;;;;;;40.55;23.73;;;4.90;99.90;;;;;;4995813;28;20112;-70
2020/12/05 02:46:55;;;;;;;43.30;24.50;;;4.90;99.90;;;;;;4994632;28;20030;-70
2020/12/05 02:49:21;;;;;;;42.30;22.80;;;4.90;99.90;;;;;;4995786;28;20041;-70
2020/12/05 02:51:46;;;;;;;46.80;24.27;;;4.90;99.90;;;;;;4995910;28;20022;-70
2020/12/05 02:54:12;;;;;;;42.88;24.33;;;4.90;99.90;;;;;;4995948;28;20029;-70
2020/12/05 02:56:37;;;;;;;43.13;24.73;;;4.90;99.90;;;;;;4995593;28;20045;-70
2020/12/05 02:59:03;;;;;;;41.92;24.33;;;4.90;99.90;;;;;;4978398;28;20031;-70
2020/12/05 03:01:29;;;;;;;45.22;25.35;;;4.90;99.90;;;;;;4994329;28;20483;-70
2020/12/05 03:03:54;;;;;;;45.42;27.02;;;4.90;99.90;;;;;;4994752;28;20448;-70
2020/12/05 03:06:20;;;;;;;47.17;25.48;;;4.90;99.90;;;;;;4977775;28;20480;-70
2020/12/05 03:08:45;;;;;;;46.15;25.45;;;4.90;99.90;;;;;;4993939;28;20026;-70
2020/12/05 03:11:11;;;;;;;50.35;26.48;;;4.90;99.90;;;;;;4994840;28;20121;-70
2020/12/05 03:13:36;;;;;;;49.83;27.48;;;4.90;99.90;;;;;;4994930;28;20022;-70
2020/12/05 03:16:02;;;;;;;46.60;26.33;;;4.90;99.90;;;;;;4994550;28;20030;-70
2020/12/05 03:18:27;;;;;;;47.95;25.48;;;4.90;99.90;;;;;;4995388;28;20026;-70
2020/12/05 03:20:53;;;;;;;50.83;26.60;;;4.90;99.90;;;;;;4977496;28;20121;-70
2020/12/05 03:23:19;;;;;;;51.63;28.50;;;4.90;99.90;;;;;;4993586;28;20419;-70
2020/12/05 03:25:44;;;;;;;46.83;26.15;;;4.80;99.90;;;;;;4993811;28;20066;-70
2020/12/05 03:28:10;;;;;;;46.35;26.50;;;4.80;99.90;;;;;;4977337;28;20030;-70
2020/12/05 03:30:35;;;;;;;47.10;27.02;;;4.80;99.90;;;;;;4993735;28;20029;-70
2020/12/05 03:33:01;;;;;;;46.72;27.35;;;4.80;99.90;;;;;;4993798;28;20041;-69
2020/12/05 03:35:28;;;;;;;43.30;25.15;;;4.80;99.90;;;;;;4995130;28;20046;-70
2020/12/05 03:37:54;;;;;;;44.85;25.13;;;4.80;99.90;;;;;;4993460;28;20022;-70
2020/12/05 03:40:20;;;;;;;46.83;26.67;;;4.70;99.90;;;;;;4994870;28;20428;-70
2020/12/05 03:42:45;;;;;;;48.30;27.05;;;4.70;99.90;;;;;;4993641;28;20022;-70
2020/12/05 03:45:11;;;;;;;47.92;27.30;;;4.70;99.90;;;;;;4995055;28;20061;-70
2020/12/05 03:47:36;;;;;;;50.03;27.85;;;4.70;99.90;;;;;;4995273;28;20054;-70
2020/12/05 03:50:06;;;;;;;51.17;27.90;;;4.80;99.90;;;;;;4993451;28;20097;-70
2020/12/05 03:52:31;;;;;;;50.42;27.38;;;4.70;99.90;;;;;;4994606;28;20105;-70
2020/12/05 03:54:57;;;;;;;52.20;27.20;;;4.80;99.90;;;;;;4994916;28;20089;-70
2020/12/05 03:57:23;;;;;;;49.72;27.33;;;4.80;99.90;;;;;;4994602;28;20018;-70
2020/12/05 03:59:48;;;;;;;53.97;28.08;;;4.80;99.90;;;;;;4994251;28;20384;-70
2020/12/05 04:02:15;;;;;;;49.28;27.70;;;4.80;99.90;;;;;;4994515;28;20026;-70
2020/12/05 04:04:40;;;;;;;51.97;29.73;;;4.80;99.90;;;;;;4993274;28;20383;-70
2020/12/05 04:07:06;;;;;;;53.20;28.52;;;4.80;99.90;;;;;;4994726;28;20026;-70
2020/12/05 04:09:31;;;;;;;52.38;28.95;;;4.80;99.90;;;;;;4994209;28;20427;-70
2020/12/05 04:11:57;;;;;;;53.25;29.13;;;4.80;99.90;;;;;;4994291;28;20030;-70
2020/12/05 04:14:23;;;;;;;53.17;31.15;;;4.80;99.90;;;;;;4993643;28;20022;-70
2020/12/05 04:16:48;;;;;;;47.25;28.67;;;4.80;99.90;;;;;;4994635;28;20026;-70
2020/12/05 04:19:14;;;;;;;44.50;26.92;;;5.00;99.90;;;;;;4994582;28;20030;-70
2020/12/05 04:21:40;;;;;;;43.97;28.10;;;5.00;99.90;;;;;;4976576;28;20030;-70
2020/12/05 04:24:05;;;;;;;46.38;28.02;;;5.00;99.90;;;;;;4994599;28;20032;-70
2020/12/05 04:26:31;;;;;;;46.33;27.35;;;5.00;99.90;;;;;;4994576;28;20045;-70
2020/12/05 04:28:56;;;;;;;39.53;25.77;;;5.00;99.90;;;;;;4996856;28;20064;-70
2020/12/05 04:31:22;;;;;;;42.25;26.42;;;5.00;99.90;;;;;;4997976;28;20037;-70
2020/12/05 04:33:47;;;;;;;45.05;26.02;;;5.00;99.90;;;;;;4980589;28;20539;-70
2020/12/05 04:36:13;;;;;;;41.03;26.20;;;5.00;99.90;;;;;;4998539;28;20072;-70
2020/12/05 04:38:39;;;;;;;40.10;26.45;;;4.90;99.90;;;;;;4997008;28;20030;-70
2020/12/05 04:41:04;;;;;;;45.22;25.85;;;4.90;99.90;;;;;;4997855;28;20054;-70
2020/12/05 04:43:30;;;;;;;40.25;25.42;;;4.90;99.90;;;;;;4997392;28;20038;-70
2020/12/05 04:45:57;;;;;;;39.65;24.17;;;5.00;99.90;;;;;;4997364;28;20026;-70
2020/12/05 04:48:23;;;;;;;38.38;25.17;;;5.00;99.90;;;;;;4996557;28;20145;-70
2020/12/05 04:50:52;;;;;;;38.35;24.40;;;4.90;99.90;;;;;;4998195;28;20105;-70
2020/12/05 04:53:19;;;;;;;39.55;24.88;;;4.90;99.90;;;;;;4997932;28;20097;-70
2020/12/05 04:55:46;;;;;;;37.28;24.63;;;4.90;99.90;;;;;;4997032;28;20014;-70
2020/12/05 04:58:20;;;;;;;40.83;24.48;;;4.90;99.90;;;;;;4996436;28;20018;-70
2020/12/05 05:00:50;;;;;;;39.15;24.60;;;4.90;99.90;;;;;;4996877;28;20030;-70
2020/12/05 05:03:18;;;;;;;41.45;25.15;;;4.90;99.90;;;;;;4996573;28;20038;-70
2020/12/05 05:05:44;;;;;;;41.60;25.55;;;4.90;99.90;;;;;;4997719;28;20061;-70
2020/12/05 05:08:12;;;;;;;38.95;25.35;;;4.90;99.90;;;;;;4996803;28;20030;-70
2020/12/05 05:10:38;;;;;;;44.63;25.85;;;4.90;99.90;;;;;;4997257;28;20038;-70
2020/12/05 05:13:13;;;;;;;42.92;26.40;;;4.80;99.90;;;;;;4996046;28;20671;-70
2020/12/05 05:15:40;;;;;;;39.20;26.58;;;4.90;99.90;;;;;;4997743;28;20097;-70
2020/12/05 05:18:07;;;;;;;44.83;26.40;;;4.80;99.90;;;;;;4996014;28;20489;-70
2020/12/05 05:20:39;;;;;;;44.40;28.27;;;4.80;99.90;;;;;;4997706;28;20064;-70
2020/12/05 05:23:21;;;;;;;45.42;27.00;;;4.80;99.90;;;;;;4997393;28;20583;-70
2020/12/05 05:26:03;;;;;;;45.25;26.75;;;4.80;99.90;;;;;;4995926;28;20526;-70
2020/12/05 05:28:31;;;;;;;41.70;25.83;;;4.80;99.90;;;;;;4996119;28;20121;-70
2020/12/05 05:33:46;;;;;;;42.75;26.73;;;4.80;99.90;;;;;;5112230;27;20355;-69
2020/12/05 05:36:31;;;;;;;45.03;27.65;;;4.80;99.90;;;;;;5110183;28;20500;-70
2020/12/05 05:39:13;;;;;;;43.75;26.58;;;4.80;99.90;;;;;;5111875;28;20023;-70
2020/12/05 05:41:40;;;;;;;48.17;27.88;;;4.80;99.90;;;;;;5111848;28;20041;-70
2020/12/05 05:44:08;;;;;;;49.42;28.63;;;4.80;99.90;;;;;;5111773;28;20023;-70
2020/12/05 05:46:36;;;;;;;43.78;27.20;;;4.70;99.90;;;;;;5110741;28;20342;-70
2020/12/05 05:49:03;;;;;;;46.58;27.73;;;4.80;99.90;;;;;;5110222;28;20031;-69
2020/12/05 05:51:49;;;;;;;45.42;27.25;;;4.80;99.90;;;;;;5111580;28;20020;-69
2020/12/05 05:56:54;;;;;;;47.25;28.05;;;4.80;99.90;;;;;;5112267;27;20400;-69
2020/12/05 05:59:21;;;;;;;48.22;28.00;;;4.70;99.90;;;;;;5110115;28;20039;-69
2020/12/05 06:01:50;;;;;;;46.13;26.42;;;4.70;99.90;;;;;;5110071;28;20419;-69
2020/12/05 06:04:27;;;;;;;47.38;27.95;;;4.70;99.90;;;;;;5111842;28;20035;-70
2020/12/05 06:06:54;;;;;;;41.75;25.48;;;4.80;99.90;;;;;;5110254;28;20427;-69
2020/12/05 06:09:26;;;;;;;45.58;26.05;;;4.80;99.90;;;;;;5111481;28;20077;-69
2020/12/05 06:11:54;;;;;;;41.03;25.27;;;4.90;99.90;;;;;;5110295;28;20427;-69
2020/12/05 06:14:21;;;;;;;48.47;26.83;;;4.90;99.90;;;;;;5110247;28;20094;-69
2020/12/05 06:16:50;;;;;;;52.03;27.83;;;4.90;99.90;;;;;;5110084;28;20031;-69
2020/12/05 06:19:16;;;;;;;47.35;25.33;;;5.00;99.90;;;;;;5093405;28;20020;-69
2020/12/05 06:21:42;;;;;;;47.30;26.73;;;5.00;99.90;;;;;;5111530;28;20031;-69
2020/12/05 06:24:09;;;;;;;49.72;27.60;;;5.00;99.90;;;;;;5111465;28;20052;-69
2020/12/05 06:26:38;;;;;;;52.38;29.20;;;5.00;99.90;;;;;;5111172;28;20108;-69
2020/12/05 06:29:06;;;;;;;48.63;27.23;;;4.90;99.90;;;;;;5110819;28;20039;-70
2020/12/05 06:31:41;;;;;;;50.38;28.42;;;4.90;99.90;;;;;;5110797;28;20046;-70
2020/12/05 06:34:09;;;;;;;49.70;27.83;;;4.90;99.90;;;;;;5109474;28;20035;-70
2020/12/05 06:36:36;;;;;;;53.00;29.02;;;4.90;99.90;;;;;;5110862;28;20028;-70
2020/12/05 06:39:11;;;;;;;51.47;28.20;;;4.90;99.90;;;;;;5110205;28;20020;-69
2020/12/05 06:41:40;;;;;;;49.47;28.50;;;4.90;99.90;;;;;;5109325;28;20115;-70
2020/12/05 06:46:58;;;;;;;50.25;26.30;;;4.90;99.90;;;;;;5112208;27;20412;-69
2020/12/05 06:52:31;;;;;;;45.80;25.80;;;5.00;99.90;;;;;;5112166;27;20400;-69
2020/12/05 06:54:59;;;;;;;45.85;25.13;;;5.00;99.90;;;;;;5111496;28;20380;-69
2020/12/05 06:57:27;;;;;;;43.90;24.58;;;5.00;99.90;;;;;;5111730;28;20412;-69
2020/12/05 07:00:20;;;;;;;46.63;26.48;;;5.00;99.90;;;;;;5111647;28;20098;-69
2020/12/05 07:03:05;;;;;;;48.55;26.08;;;5.00;99.90;;;;;;5111556;28;20027;-69
2020/12/05 07:05:40;;;;;;;46.53;26.23;;;5.00;99.90;;;;;;5111418;28;20047;-69
2020/12/05 07:08:24;;;;;;;47.17;25.60;;;5.10;99.90;;;;;;5111698;28;20046;-69
2020/12/05 07:10:59;;;;;;;47.00;25.20;;;5.00;99.90;;;;;;5110098;28;20023;-69
2020/12/05 07:13:28;;;;;;;42.97;23.83;;;5.00;99.90;;;;;;5111070;28;20461;-70
2020/12/05 07:16:21;;;;;;;46.10;24.25;;;5.00;99.90;;;;;;5111525;28;20449;-70
2020/12/05 07:18:49;;;;;;;43.00;22.87;;;5.00;99.90;;;;;;5110914;28;20020;-70
2020/12/05 07:21:15;;;;;;;40.95;22.30;;;5.10;99.90;;;;;;5111189;28;20258;-70
2020/12/05 07:23:41;;;;;;;38.92;21.63;;;5.10;99.90;;;;;;5109553;28;20027;-70
2020/12/05 07:26:08;;;;;;;40.00;22.17;;;5.10;99.90;;;;;;5111373;28;20024;-70
2020/12/05 07:28:34;;;;;;;40.33;21.40;;;5.10;99.90;;;;;;5111267;28;20384;-70
2020/12/05 07:31:01;;;;;;;38.20;21.58;;;5.10;99.90;;;;;;5111180;28;20023;-70
2020/12/05 07:33:27;;;;;;;37.17;20.95;;;5.10;99.90;;;;;;5111223;28;20574;-70
2020/12/05 07:36:10;;;;;;;39.10;20.67;;;5.20;99.90;;;;;;5111143;28;20472;-69
2020/12/05 07:38:39;;;;;;;38.78;20.42;;;5.20;99.90;;;;;;5109973;28;20020;-70
2020/12/05 07:41:12;;;;;;;38.50;19.88;;;5.10;99.90;;;;;;5093360;28;20028;-70
2020/12/05 07:43:39;;;;;;;37.05;20.10;;;5.20;99.90;;;;;;5110768;28;20107;-70
2020/12/05 07:46:07;;;;;;;35.15;19.63;;;5.10;99.90;;;;;;5109781;28;20034;-69
2020/12/05 07:48:33;;;;;;;36.13;19.88;;;5.10;99.90;;;;;;5110618;28;20024;-70
2020/12/05 07:50:59;;;;;;;34.30;18.63;;;5.10;99.90;;;;;;5110322;28;20499;-70
2020/12/05 07:53:28;;;;;;;36.15;19.75;;;5.20;99.90;;;;;;5092035;28;20119;-70
2020/12/05 07:55:55;;;;;;;35.03;19.45;;;5.10;99.90;;;;;;5110784;28;20038;-69
2020/12/05 07:58:21;;;;;;;34.17;18.83;;;5.20;99.90;;;;;;5110461;28;20016;-70
2020/12/05 08:00:47;;;;;;;35.17;20.08;;;5.10;99.90;;;;;;5110686;28;20023;-69
2020/12/05 08:06:27;;;;;;;32.28;18.13;;;5.10;99.90;;;;;;5112251;27;20347;-69
2020/12/05 08:09:03;;;;;;;33.65;18.70;;;5.10;99.90;;;;;;5111977;28;20093;-68
2020/12/05 08:11:39;;;;;;;35.47;17.85;;;5.10;99.90;;;;;;5110740;28;20023;-69
2020/12/05 08:14:06;;;;;;;33.58;17.80;;;5.20;99.90;;;;;;5110043;28;20059;-69
2020/12/05 08:16:37;;;;;;;33.13;17.85;;;5.10;99.90;;;;;;5110399;28;20024;-70
2020/12/05 08:19:02;;;;;;;33.70;17.88;;;5.20;99.90;;;;;;5111745;28;20020;-69
2020/12/05 08:21:29;;;;;;;31.02;18.48;;;5.20;99.90;;;;;;5111690;28;20484;-69
2020/12/05 08:24:05;;;;;;;29.52;17.67;;;5.20;99.90;;;;;;5111660;28;20031;-70
2020/12/05 08:26:32;;;;;;;34.10;18.98;;;5.10;99.90;;;;;;5111604;28;20061;-68
2020/12/05 08:28:59;;;;;;;35.13;19.65;;;5.10;99.90;;;;;;5111562;28;20020;-69
2020/12/05 08:31:25;;;;;;;38.38;19.80;;;5.10;99.90;;;;;;5110552;28;20453;-70
2020/12/05 08:33:50;;;;;;;32.85;18.60;;;5.20;99.90;;;;;;5111193;28;20026;-70
2020/12/05 08:36:22;;;;;;;32.95;18.55;;;5.20;99.90;;;;;;5109544;28;20208;-70
2020/12/05 08:38:48;;;;;;;32.63;18.70;;;5.40;99.90;;;;;;5111115;28;20020;-70
2020/12/05 08:41:14;;;;;;;33.33;19.42;;;5.60;99.90;;;;;;5111337;28;20024;-70
2020/12/05 08:43:40;;;;;;;34.25;18.98;;;6.00;99.90;;;;;;5109826;28;20023;-70
2020/12/05 08:46:22;;;;;;;26.17;16.23;;;6.70;99.90;;;;;;5109693;28;20024;-70
2020/12/05 08:48:50;;;;;;;25.33;16.48;;;7.50;99.90;;;;;;5111189;28;20048;-70
2020/12/05 08:51:16;;;;;;;27.13;16.27;;;8.20;99.90;;;;;;5111165;28;20020;-69
2020/12/05 08:53:43;;;;;;;23.88;15.00;;;8.90;99.90;;;;;;5109684;28;20530;-69
2020/12/05 08:56:19;;;;;;;21.70;14.15;;;9.30;99.90;;;;;;5092411;28;20400;-70
2020/12/05 08:58:45;;;;;;;20.42;13.82;;;9.50;99.90;;;;;;5109188;28;20034;-70
2020/12/05 09:01:12;;;;;;;22.85;14.43;;;9.80;99.90;;;;;;5110375;28;20495;-70
2020/12/05 09:03:39;;;;;;;19.50;13.55;;;10.00;99.90;;;;;;5109018;28;20481;-69
2020/12/05 09:06:05;;;;;;;22.45;13.73;;;10.40;99.90;;;;;;5110121;28;20051;-70
2020/12/05 09:08:31;;;;;;;19.92;13.88;;;10.10;99.90;;;;;;5108936;28;20028;-69
2020/12/05 09:10:57;;;;;;;21.50;13.90;;;10.00;99.90;;;;;;5110790;28;20084;-70
2020/12/05 09:13:24;;;;;;;20.80;13.85;;;10.80;99.90;;;;;;5110367;28;20145;-69
2020/12/05 09:15:55;;;;;;;19.30;13.18;;;10.40;99.90;;;;;;5105598;28;20016;-70
2020/12/05 09:18:21;;;;;;;20.63;13.65;;;10.70;99.90;;;;;;5095581;28;20020;-70
2020/12/05 09:20:47;;;;;;;21.73;14.50;;;10.00;99.90;;;;;;5097032;28;20035;-70
2020/12/05 09:23:12;;;;;;;22.95;14.85;;;10.20;99.90;;;;;;5096632;28;20113;-70
2020/12/05 09:25:40;;;;;;;22.52;14.20;;;10.80;99.90;;;;;;5094978;28;20481;-69
2020/12/05 09:28:12;;;;;;;18.85;13.80;;;11.40;99.90;;;;;;5096540;28;20438;-69
2020/12/05 09:30:39;;;;;;;18.85;13.60;;;11.20;99.90;;;;;;5096709;28;20039;-70
2020/12/05 09:33:15;;;;;;;20.50;14.13;;;11.30;99.90;;;;;;5095602;28;20020;-70
2020/12/05 09:35:41;;;;;;;19.50;12.38;;;11.50;99.90;;;;;;5095285;28;20024;-70
2020/12/05 09:38:07;;;;;;;20.17;13.65;;;11.70;99.90;;;;;;5096110;28;20024;-70
2020/12/05 09:40:32;;;;;;;17.98;12.15;;;11.60;99.90;;;;;;5095426;28;20103;-70
2020/12/05 09:42:59;;;;;;;17.20;12.18;;;12.00;99.90;;;;;;5094733;28;20024;-70
2020/12/05 09:45:25;;;;;;;18.75;12.90;;;12.00;99.90;;;;;;5096483;28;20031;-70
2020/12/05 09:47:51;;;;;;;19.30;13.45;;;12.50;99.90;;;;;;5096225;28;20012;-70
2020/12/05 09:50:16;;;;;;;20.70;13.43;;;12.50;99.90;;;;;;5094999;28;20194;-69
2020/12/05 09:52:43;;;;;;;20.27;13.25;;;12.30;99.90;;;;;;5096384;28;20024;-70
2020/12/05 09:55:09;;;;;;;17.50;12.20;;;11.70;99.90;;;;;;5094535;28;20544;-70
2020/12/05 09:57:35;;;;;;;15.23;11.27;;;11.90;99.90;;;;;;5094768;28;20076;-70
2020/12/05 10:00:03;;;;;;;15.27;11.77;;;12.30;99.90;;;;;;5096249;28;20103;-70
2020/12/05 10:02:29;;;;;;;19.88;12.65;;;11.90;99.90;;;;;;5096195;28;20369;-70
2020/12/05 10:04:54;;;;;;;17.98;12.57;;;11.70;99.90;;;;;;5095631;28;20055;-70
2020/12/05 10:07:20;;;;;;;20.20;12.18;;;11.40;99.90;;;;;;5094362;28;20414;-71
2020/12/05 10:09:45;;;;;;;17.75;11.98;;;12.00;99.90;;;;;;5095992;28;20023;-71
2020/12/05 10:12:12;;;;;;;16.45;10.93;;;12.90;99.90;;;;;;5094751;28;20020;-70
2020/12/05 10:14:37;;;;;;;14.88;11.13;;;13.00;99.90;;;;;;5095672;28;20055;-69
2020/12/05 10:17:03;;;;;;;13.93;10.55;;;12.30;99.90;;;;;;5095837;28;20031;-70
2020/12/05 10:19:28;;;;;;;14.55;10.52;;;12.80;99.90;;;;;;5095752;28;20036;-69
2020/12/05 10:21:54;;;;;;;15.60;10.90;;;13.20;99.90;;;;;;5095706;28;20099;-70
2020/12/05 10:24:20;;;;;;;14.80;10.40;;;12.90;99.90;;;;;;5095603;28;20110;-70
2020/12/05 10:26:48;;;;;;;15.57;10.40;;;12.20;99.90;;;;;;5095644;28;20028;-70
2020/12/05 10:29:14;;;;;;;14.10;10.25;;;12.30;99.90;;;;;;5093669;28;20020;-70
2020/12/05 10:31:44;;;;;;;14.93;9.25;;;13.20;99.90;;;;;;5095341;28;20016;-70
2020/12/05 10:34:10;;;;;;;14.73;10.30;;;11.70;99.90;;;;;;5095525;28;20103;-70
2020/12/05 10:36:35;;;;;;;14.45;10.82;;;9.90;99.90;;;;;;5095509;28;20443;-69
2020/12/05 10:39:01;;;;;;;13.95;10.13;;;9.30;99.90;;;;;;5095413;28;20020;-69
2020/12/05 10:41:26;;;;;;;17.92;10.98;;;8.60;99.90;;;;;;5094276;28;20125;-70
2020/12/05 10:43:52;;;;;;;16.08;10.40;;;8.40;99.90;;;;;;5093439;28;20020;-69
2020/12/05 10:46:17;;;;;;;15.77;10.48;;;8.10;99.90;;;;;;5094995;28;20031;-70
2020/12/05 10:48:43;;;;;;;17.77;10.25;;;7.70;99.90;;;;;;5094107;28;20027;-70
2020/12/05 10:51:09;;;;;;;17.42;10.48;;;7.80;99.90;;;;;;5095234;28;20031;-70
2020/12/05 10:53:34;;;;;;;15.93;10.02;;;7.70;99.90;;;;;;5093740;28;20027;-70
2020/12/05 10:56:00;;;;;;;12.27;8.77;;;8.10;99.90;;;;;;5093654;28;20545;-70
2020/12/05 10:58:25;;;;;;;15.88;9.27;;;9.60;99.90;;;;;;5095116;28;20427;-70
2020/12/05 11:00:51;;;;;;;12.65;9.10;;;11.20;99.90;;;;;;5094049;28;20365;-70
2020/12/05 11:03:16;;;;;;;12.48;7.70;;;12.30;99.90;;;;;;5076280;28;20028;-69
2020/12/05 11:05:42;;;;;;;10.13;7.70;;;12.50;99.90;;;;;;5075991;28;20044;-69
2020/12/05 11:08:07;;;;;;;12.10;8.65;;;12.30;99.90;;;;;;5093470;28;20480;-69
2020/12/05 11:10:33;;;;;;;9.43;7.57;;;12.10;99.90;;;;;;5093050;28;20016;-69
2020/12/05 11:12:59;;;;;;;9.63;7.35;;;11.70;99.90;;;;;;5093015;28;20110;-68
2020/12/05 11:15:24;;;;;;;12.95;7.88;;;11.00;99.90;;;;;;5094495;28;20032;-69
2020/12/05 11:17:50;;;;;;;8.35;6.72;;;10.20;99.90;;;;;;5094444;28;20071;-68
2020/12/05 11:20:16;;;;;;;11.07;7.65;;;10.10;99.90;;;;;;5093107;28;20024;-68
2020/12/05 11:22:42;;;;;;;10.10;6.40;;;9.70;99.90;;;;;;5093566;28;20077;-69
2020/12/05 11:25:07;;;;;;;9.98;6.22;;;9.60;99.90;;;;;;5075832;28;20028;-69
2020/12/05 11:27:33;;;;;;;10.27;6.38;;;9.30;99.90;;;;;;5094532;28;20027;-68
2020/12/05 11:29:59;;;;;;;10.32;6.32;;;9.40;99.90;;;;;;5093084;28;20024;-70
2020/12/05 11:32:24;;;;;;;10.95;5.82;;;9.20;99.90;;;;;;5094509;28;20097;-69
2020/12/05 11:34:50;;;;;;;8.43;5.68;;;9.10;99.90;;;;;;5093239;28;20024;-68
2020/12/05 11:37:15;;;;;;;8.07;5.07;;;9.00;99.90;;;;;;5094381;28;20031;-69
2020/12/05 11:39:41;;;;;;;7.10;5.20;;;9.00;99.90;;;;;;5092360;28;20028;-68
2020/12/05 11:42:06;;;;;;;8.30;4.97;;;8.80;99.90;;;;;;5094282;28;20039;-70
2020/12/05 11:44:32;;;;;;;7.68;4.97;;;8.80;99.90;;;;;;5075610;28;20115;-68
2020/12/05 11:46:58;;;;;;;7.63;5.10;;;8.60;99.90;;;;;;5075630;28;20483;-68
2020/12/05 11:49:24;;;;;;;7.22;4.82;;;8.50;99.90;;;;;;5092447;28;20020;-68
2020/12/05 11:51:51;;;;;;;5.45;3.90;;;8.40;99.90;;;;;;5094209;28;20020;-69
2020/12/05 11:54:17;;;;;;;5.97;4.03;;;8.20;99.90;;;;;;5092405;28;20024;-69
2020/12/05 11:56:42;;;;;;;7.05;5.10;;;8.10;99.90;;;;;;5093936;28;20103;-68
2020/12/05 11:59:08;;;;;;;7.35;4.93;;;8.20;99.90;;;;;;5093790;28;20030;-68
2020/12/05 12:01:33;;;;;;;7.63;4.53;;;8.00;99.90;;;;;;5093107;28;20024;-70
2020/12/05 12:03:59;;;;;;;8.27;4.45;;;8.00;99.90;;;;;;5091946;28;20119;-68
2020/12/05 12:06:24;;;;;;;8.55;5.18;;;8.10;99.90;;;;;;5094083;28;20044;-69
2020/12/05 12:08:50;;;;;;;5.97;4.82;;;8.50;99.90;;;;;;5093479;28;20431;-68
2020/12/05 12:11:17;;;;;;;5.53;3.95;;;8.70;99.90;;;;;;5094061;28;20020;-70
2020/12/05 12:13:43;;;;;;;6.03;4.30;;;8.60;99.90;;;;;;5094066;28;20073;-70
2020/12/05 12:16:12;;;;;;;5.22;3.60;;;8.30;99.90;;;;;;5092997;28;20020;-70
2020/12/05 12:18:37;;;;;;;5.30;3.45;;;8.10;99.90;;;;;;5092488;28;20028;-70
2020/12/05 12:21:03;;;;;;;7.95;3.78;;;8.00;99.90;;;;;;5092796;28;20032;-70
2020/12/05 12:23:28;;;;;;;6.85;3.78;;;8.00;99.90;;;;;;5092106;28;20028;-70
2020/12/05 12:25:54;;;;;;;4.05;3.05;;;7.90;99.90;;;;;;5093581;28;20060;-70
2020/12/05 12:28:20;;;;;;;3.60;2.92;;;8.00;99.90;;;;;;5093602;28;20076;-70
2020/12/05 12:30:45;;;;;;;3.90;3.50;;;8.20;99.90;;;;;;5093593;28;20043;-70
2020/12/05 12:33:11;;;;;;;4.45;3.00;;;8.00;99.90;;;;;;5093294;28;20077;-70
2020/12/05 12:35:36;;;;;;;5.35;3.33;;;7.90;99.90;;;;;;5093506;28;20039;-70
2020/12/05 12:38:02;;;;;;;5.90;3.72;;;7.70;99.90;;;;;;5092800;28;20028;-70
2020/12/05 12:40:27;;;;;;;4.32;3.30;;;7.60;99.90;;;;;;5092482;28;20513;-70
2020/12/05 12:42:53;;;;;;;6.00;3.42;;;7.50;99.90;;;;;;5092305;28;20043;-70
2020/12/05 12:45:27;;;;;;;7.63;3.90;;;7.50;99.90;;;;;;5091911;28;20030;-70
2020/12/05 12:48:36;;;;;;;5.45;3.95;;;7.60;99.90;;;;;;5092379;28;20108;-70
2020/12/05 12:50:38;;;;;;;4.75;3.35;;;7.70;99.90;;;;;;5092967;28;20024;-70
2020/12/05 12:53:04;;;;;;;7.10;3.92;;;7.60;99.90;;;;;;5097471;28;20031;-70
2020/12/05 12:55:31;;;;;;;5.03;3.45;;;7.70;99.90;;;;;;5096973;28;20028;-70